createdAt,value
2023-08-14T00:00:55.792Z,97388.47
2023-08-14T00:03:23.002Z,97375.47
2023-08-14T00:05:49.605Z,97378.69
2023-08-14T00:08:16.172Z,97371.59
2023-08-14T00:10:42.980Z,97380.00
2023-08-14T00:13:09.685Z,97379.13
2023-08-14T00:15:36.271Z,97369.97
2023-08-14T00:18:02.904Z,97367.41
2023-08-14T00:20:29.564Z,97357.03
2023-08-14T00:22:56.158Z,97349.78
2023-08-14T00:25:23.382Z,97354.88
2023-08-14T00:27:50.005Z,97357.31
2023-08-14T00:30:16.539Z,97354.69
2023-08-14T00:32:43.432Z,97349.59
2023-08-14T00:35:09.975Z,97351.91
2023-08-14T00:37:44.985Z,97353.31
2023-08-14T00:40:13.293Z,97340.59
2023-08-14T00:42:40.974Z,97341.59
2023-08-14T00:45:08.465Z,97333.88
2023-08-14T00:47:38.662Z,97323.84
2023-08-14T00:50:07.736Z,97311.97
2023-08-14T00:52:38.277Z,97301.13
2023-08-14T00:55:09.232Z,97307.41
2023-08-14T00:57:36.583Z,97296.13
2023-08-14T01:00:05.967Z,97294.34
2023-08-14T01:02:35.252Z,97299.22
2023-08-14T01:05:01.992Z,97297.78
2023-08-14T01:07:30.329Z,97296.97
2023-08-14T01:09:57.418Z,97309.09
2023-08-14T01:12:44.376Z,97318.16
2023-08-14T01:15:14.365Z,97336.25
2023-08-14T01:17:48.073Z,97332.59
2023-08-14T01:20:19.097Z,97323.50
2023-08-14T01:23:31.599Z,97315.16
2023-08-14T01:26:01.872Z,97322.41
2023-08-14T01:28:29.823Z,97327.22
2023-08-14T01:30:57.972Z,97328.34
2023-08-14T01:33:24.654Z,97338.06
2023-08-14T01:36:07.177Z,97333.22
2023-08-14T01:38:46.289Z,97339.34
2023-08-14T01:41:20.869Z,97344.34
2023-08-14T01:43:53.909Z,97339.84
2023-08-14T01:46:22.608Z,97327.75
2023-08-14T01:48:50.521Z,97329.50
2023-08-14T01:51:19.250Z,97333.72
2023-08-14T01:53:47.920Z,97333.72
2023-08-14T01:56:15.175Z,97331.78
2023-08-14T01:58:42.116Z,97325.91
2023-08-14T02:01:08.767Z,97338.31
2023-08-14T02:03:35.416Z,97341.34
2023-08-14T02:06:01.941Z,97328.25
2023-08-14T02:08:28.546Z,97343.88
2023-08-14T02:10:55.623Z,97334.25
2023-08-14T02:13:22.868Z,97357.13
2023-08-14T02:15:49.518Z,97347.13
2023-08-14T02:18:16.154Z,97316.47
2023-08-14T02:20:47.992Z,97287.94
2023-08-14T02:23:14.645Z,97275.50
2023-08-14T02:25:44.873Z,97265.00
2023-08-14T02:28:12.792Z,97259.03
2023-08-14T02:30:44.072Z,97246.75
2023-08-14T02:33:10.906Z,97235.28
2023-08-14T02:35:37.514Z,97236.72
2023-08-14T02:38:06.607Z,97240.56
2023-08-14T02:40:33.371Z,97241.09
2023-08-14T02:43:02.598Z,97228.97
2023-08-14T02:45:30.573Z,97230.25
2023-08-14T02:47:57.407Z,97247.66
2023-08-14T02:50:24.172Z,97255.84
2023-08-14T02:52:50.975Z,97271.16
2023-08-14T02:55:17.854Z,97285.94
2023-08-14T02:57:44.501Z,97291.19
2023-08-14T03:00:11.481Z,97292.31
2023-08-14T03:02:38.236Z,97314.84
2023-08-14T03:05:05.144Z,97297.94
2023-08-14T03:07:31.666Z,97295.19
2023-08-14T03:09:58.257Z,97334.59
2023-08-14T03:12:24.800Z,97356.34
2023-08-14T03:14:51.381Z,97355.56
2023-08-14T03:17:17.926Z,97360.78
2023-08-14T03:19:44.543Z,97353.13
2023-08-14T03:22:11.187Z,97363.34
2023-08-14T03:24:37.717Z,97361.44
2023-08-14T03:27:04.349Z,97369.66
2023-08-14T03:29:31.141Z,97376.38
2023-08-14T03:31:57.886Z,97380.53
2023-08-14T03:34:24.561Z,97378.31
2023-08-14T03:36:51.212Z,97379.41
2023-08-14T03:39:19.337Z,97375.16
2023-08-14T03:41:46.409Z,97363.59
2023-08-14T03:44:13.064Z,97362.78
2023-08-14T03:46:39.650Z,97361.66
2023-08-14T03:49:06.441Z,97361.88
2023-08-14T03:51:33.112Z,97336.06
2023-08-14T03:53:59.957Z,97346.13
2023-08-14T03:56:26.649Z,97316.78
2023-08-14T03:58:53.231Z,97316.69
2023-08-14T04:01:20.057Z,97329.50
2023-08-14T04:03:46.670Z,97309.69
2023-08-14T04:06:13.240Z,97327.75
2023-08-14T04:08:39.923Z,97339.31
2023-08-14T04:11:06.521Z,97334.06
2023-08-14T04:13:33.150Z,97337.91
2023-08-14T04:16:04.596Z,97347.13
2023-08-14T04:18:31.590Z,97335.06
2023-08-14T04:20:58.747Z,97327.75
2023-08-14T04:23:26.773Z,97325.94
2023-08-14T04:25:54.196Z,97328.69
2023-08-14T04:28:21.798Z,97295.06
2023-08-14T04:30:48.748Z,97296.91
2023-08-14T04:33:16.089Z,97290.50
2023-08-14T04:35:43.988Z,97295.69
2023-08-14T04:38:11.528Z,97296.59
2023-08-14T04:40:41.212Z,97294.25
2023-08-14T04:43:07.897Z,97308.75
2023-08-14T04:45:35.362Z,97297.19
2023-08-14T04:48:02.081Z,97291.31
2023-08-14T04:50:29.626Z,97286.41
2023-08-14T04:52:56.219Z,97277.88
2023-08-14T04:55:24.871Z,97286.84
2023-08-14T04:57:52.616Z,97279.31
2023-08-14T05:00:19.983Z,97268.66
2023-08-14T05:02:46.658Z,97274.56
2023-08-14T05:05:13.243Z,97280.34
2023-08-14T05:07:39.846Z,97265.78
2023-08-14T05:10:07.156Z,97257.19
2023-08-14T05:12:33.898Z,97258.78
2023-08-14T05:15:00.446Z,97252.41
2023-08-14T05:17:27.249Z,97256.25
2023-08-14T05:19:54.036Z,97248.75
2023-08-14T05:22:21.314Z,97249.44
2023-08-14T05:24:48.215Z,97257.91
2023-08-14T05:27:14.810Z,97254.53
2023-08-14T05:29:41.290Z,97246.50
2023-08-14T05:32:07.836Z,97250.47
2023-08-14T05:34:34.314Z,97257.91
2023-08-14T05:37:00.875Z,97237.97
2023-08-14T05:39:28.232Z,97240.38
2023-08-14T05:41:54.922Z,97242.41
2023-08-14T05:44:21.575Z,97242.56
2023-08-14T05:46:49.838Z,97227.22
2023-08-14T05:49:17.265Z,97225.34
2023-08-14T05:51:44.342Z,97230.03
2023-08-14T05:54:10.890Z,97234.41
2023-08-14T05:56:37.385Z,97235.00
2023-08-14T05:59:04.211Z,97233.78
2023-08-14T06:01:30.847Z,97234.59
2023-08-14T06:03:57.484Z,97230.13
2023-08-14T06:06:24.112Z,97228.19
2023-08-14T06:08:50.932Z,97235.00
2023-08-14T06:11:17.476Z,97239.06
2023-08-14T06:13:44.397Z,97239.88
2023-08-14T06:16:11.040Z,97237.31
2023-08-14T06:18:37.645Z,97243.63
2023-08-14T06:21:04.384Z,97242.19
2023-08-14T06:23:30.900Z,97243.31
2023-08-14T06:25:59.099Z,97249.41
2023-08-14T06:28:25.706Z,97253.06
2023-08-14T06:30:52.391Z,97244.84
2023-08-14T06:33:18.938Z,97243.09
2023-08-14T06:35:45.672Z,97242.78
2023-08-14T06:38:13.308Z,97248.66
2023-08-14T06:40:40.050Z,97245.84
2023-08-14T06:43:07.665Z,97245.91
2023-08-14T06:45:34.597Z,97236.75
2023-08-14T06:48:01.267Z,97247.81
2023-08-14T06:50:27.935Z,97249.59
2023-08-14T06:52:54.656Z,97241.25
2023-08-14T06:55:24.116Z,97244.88
2023-08-14T06:57:50.771Z,97242.34
2023-08-14T07:00:17.822Z,97246.09
2023-08-14T07:02:46.641Z,97239.16
2023-08-14T07:05:13.871Z,97240.50
2023-08-14T07:07:40.845Z,97233.38
2023-08-14T07:10:08.079Z,97231.94
2023-08-14T07:12:34.771Z,97226.47
2023-08-14T07:15:06.203Z,97221.28
2023-08-14T07:17:33.397Z,97222.94
2023-08-14T07:20:00.084Z,97226.81
2023-08-14T07:22:26.631Z,97227.47
2023-08-14T07:24:53.180Z,97220.94
2023-08-14T07:27:21.111Z,97226.28
2023-08-14T07:29:49.005Z,97226.09
2023-08-14T07:32:16.749Z,97224.94
2023-08-14T07:34:43.553Z,97220.69
2023-08-14T07:37:10.053Z,97220.50
2023-08-14T07:39:36.553Z,97218.56
2023-08-14T07:42:03.083Z,97218.19
2023-08-14T07:44:29.602Z,97220.91
2023-08-14T07:46:56.118Z,97224.91
2023-08-14T07:49:22.712Z,97220.50
2023-08-14T07:51:49.257Z,97222.41
2023-08-14T07:54:15.897Z,97220.41
2023-08-14T07:56:44.628Z,97221.75
2023-08-14T07:59:12.727Z,97220.59
2023-08-14T08:01:39.318Z,97218.69
2023-08-14T08:04:06.248Z,97220.03
2023-08-14T08:06:43.422Z,97224.91
2023-08-14T08:09:10.980Z,97226.78
2023-08-14T08:11:37.543Z,97225.41
2023-08-14T08:14:06.702Z,97230.38
2023-08-14T08:16:37.653Z,97228.81
2023-08-14T08:19:06.538Z,97242.59
2023-08-14T08:21:33.783Z,97255.63
2023-08-14T08:24:00.409Z,97249.22
2023-08-14T08:26:26.941Z,97247.84
2023-08-14T08:28:53.572Z,97243.03
2023-08-14T08:31:20.229Z,97259.75
2023-08-14T08:33:46.858Z,97256.44
2023-08-14T08:36:14.344Z,97262.31
2023-08-14T08:38:42.858Z,97262.00
2023-08-14T08:41:09.902Z,97256.34
2023-08-14T08:43:37.163Z,97258.88
2023-08-14T08:46:11.781Z,97256.34
2023-08-14T08:48:42.357Z,97261.44
2023-08-14T08:51:09.788Z,97254.72
2023-08-14T08:53:37.626Z,97254.38
2023-08-14T08:56:04.863Z,97255.75
2023-08-14T08:58:31.743Z,97260.69
2023-08-14T09:00:59.377Z,97259.66
2023-08-14T09:03:26.181Z,97255.78
2023-08-14T09:05:53.112Z,97258.34
2023-08-14T09:08:19.798Z,97254.97
2023-08-14T09:10:46.423Z,97259.66
2023-08-14T09:15:47.165Z,97257.47
2023-08-14T09:18:13.925Z,97260.00
2023-08-14T09:20:41.085Z,97252.66
2023-08-14T09:23:13.508Z,97250.25
2023-08-14T09:25:46.889Z,97251.47
2023-08-14T09:28:14.111Z,97245.81
2023-08-14T09:30:41.850Z,97248.69
2023-08-14T09:33:12.579Z,97239.78
2023-08-14T09:35:40.331Z,97243.56
2023-08-14T09:38:06.997Z,97244.50
2023-08-14T09:40:34.220Z,97236.41
2023-08-14T09:43:01.695Z,97238.63
2023-08-14T09:45:35.788Z,97236.94
2023-08-14T09:48:02.869Z,97239.78
2023-08-14T09:50:30.018Z,97246.16
2023-08-14T09:53:01.064Z,97242.47
2023-08-14T09:55:28.668Z,97241.03
2023-08-14T09:57:58.815Z,97239.94
2023-08-14T10:00:33.228Z,97244.09
2023-08-14T10:03:03.824Z,97240.59
2023-08-14T10:05:31.138Z,97229.47
2023-08-14T10:07:58.906Z,97234.28
2023-08-14T10:10:28.254Z,97239.66
2023-08-14T10:13:07.110Z,97233.78
2023-08-14T10:15:37.654Z,97224.66
2023-08-14T10:18:14.773Z,97230.59
2023-08-14T10:20:45.063Z,97225.16
2023-08-14T10:23:14.657Z,97226.94
2023-08-14T10:25:43.276Z,97228.72
2023-08-14T10:28:10.665Z,97229.25
2023-08-14T10:30:38.196Z,97231.13
2023-08-14T10:33:06.785Z,97228.38
2023-08-14T10:36:05.617Z,97229.94
2023-08-14T10:38:47.280Z,97230.84
2023-08-14T10:41:17.523Z,97229.56
2023-08-14T10:43:51.754Z,97235.22
2023-08-14T10:46:18.755Z,97233.78
2023-08-14T10:48:49.571Z,97240.72
2023-08-14T10:51:20.821Z,97228.53
2023-08-14T10:53:47.485Z,97232.97
2023-08-14T10:56:14.530Z,97233.72
2023-08-14T10:58:48.367Z,97239.84
2023-08-14T11:01:16.030Z,97240.13
2023-08-14T11:04:06.406Z,97239.66
2023-08-14T11:07:06.719Z,97246.13
2023-08-14T11:09:35.061Z,97237.03
2023-08-14T11:12:09.708Z,97241.09
2023-08-14T11:14:39.059Z,97236.66
2023-08-14T11:17:05.966Z,97235.34
2023-08-14T11:19:35.751Z,97237.22
2023-08-14T11:22:02.787Z,97223.59
2023-08-14T11:24:30.635Z,97230.16
2023-08-14T11:27:01.771Z,97214.53
2023-08-14T11:29:30.794Z,97213.00
2023-08-14T11:32:13.932Z,97211.88
2023-08-14T11:34:40.959Z,97213.28
2023-08-14T11:37:09.505Z,97215.06
2023-08-14T11:39:37.851Z,97213.78
2023-08-14T11:42:04.833Z,97218.69
2023-08-14T11:44:31.942Z,97232.88
2023-08-14T11:46:59.048Z,97240.03
2023-08-14T11:49:26.050Z,97245.03
2023-08-14T11:51:53.725Z,97241.66
2023-08-14T11:54:20.577Z,97242.25
2023-08-14T11:56:48.535Z,97250.47
2023-08-14T11:59:16.382Z,97258.03
2023-08-14T12:01:43.167Z,97270.53
2023-08-14T12:04:09.825Z,97279.44
2023-08-14T12:06:36.716Z,97286.56
2023-08-14T12:09:08.982Z,97293.56
2023-08-14T12:11:37.402Z,97303.16
2023-08-14T12:14:06.050Z,97299.41
2023-08-14T12:16:32.974Z,97301.03
2023-08-14T12:18:59.682Z,97327.72
2023-08-14T12:21:28.165Z,97332.22
2023-08-14T12:23:55.904Z,97317.84
2023-08-14T12:26:22.682Z,97313.78
2023-08-14T12:28:49.312Z,97316.94
2023-08-14T12:31:15.909Z,97315.19
2023-08-14T12:33:44.118Z,97317.34
2023-08-14T12:36:12.428Z,97311.09
2023-08-14T12:38:39.313Z,97299.00
2023-08-14T12:41:06.587Z,97315.41
2023-08-14T12:43:40.165Z,97312.53
2023-08-14T12:46:10.428Z,97311.59
2023-08-14T12:48:37.566Z,97314.00
2023-08-14T12:51:05.063Z,97308.22
2023-08-14T12:53:33.020Z,97298.94
2023-08-14T12:56:03.690Z,97303.97
2023-08-14T12:58:31.022Z,97305.25
2023-08-14T13:01:03.781Z,97290.19
2023-08-14T13:03:36.506Z,97288.53
2023-08-14T13:06:05.473Z,97282.53
2023-08-14T13:08:31.981Z,97271.78
2023-08-14T13:10:58.815Z,97260.66
2023-08-14T13:13:28.138Z,97270.56
2023-08-14T13:15:55.594Z,97268.50
2023-08-14T13:18:22.783Z,97259.44
2023-08-14T13:20:49.302Z,97259.09
2023-08-14T13:23:16.932Z,97249.44
2023-08-14T13:25:43.740Z,97252.94
2023-08-14T13:28:10.469Z,97250.47
2023-08-14T13:30:37.268Z,97249.88
2023-08-14T13:33:04.310Z,97249.28
2023-08-14T13:35:31.444Z,97252.38
2023-08-14T13:37:59.909Z,97258.31
2023-08-14T13:40:26.672Z,97257.34
2023-08-14T13:42:53.208Z,97248.38
2023-08-14T13:45:19.919Z,97246.47
2023-08-14T13:47:54.720Z,97235.78
2023-08-14T13:50:32.515Z,97229.28
2023-08-14T13:53:00.501Z,97230.16
2023-08-14T13:55:31.113Z,97233.13
2023-08-14T13:57:58.342Z,97227.50
2023-08-14T14:00:29.189Z,97238.69
2023-08-14T14:02:56.540Z,97234.16
2023-08-14T14:05:23.447Z,97242.59
2023-08-14T14:07:54.392Z,97240.47
2023-08-14T14:10:23.015Z,97235.78
2023-08-14T14:13:01.471Z,97239.00
2023-08-14T14:15:29.805Z,97228.84
2023-08-14T14:17:56.471Z,97225.94
2023-08-14T14:20:23.488Z,97232.56
2023-08-14T14:22:50.113Z,97231.44
2023-08-14T14:25:16.704Z,97238.59
2023-08-14T14:27:43.265Z,97231.53
2023-08-14T14:30:10.234Z,97225.38
2023-08-14T14:32:37.104Z,97222.25
2023-08-14T14:35:04.204Z,97222.50
2023-08-14T14:37:31.250Z,97232.06
2023-08-14T14:39:57.948Z,97217.31
2023-08-14T14:42:27.303Z,97210.78
2023-08-14T14:44:57.226Z,97209.66
2023-08-14T14:47:25.153Z,97211.41
2023-08-14T14:49:52.117Z,97211.88
2023-08-14T14:52:19.016Z,97196.22
2023-08-14T14:54:45.562Z,97194.69
2023-08-14T14:57:12.172Z,97195.38
2023-08-14T14:59:38.745Z,97187.41
2023-08-14T15:02:12.189Z,97180.22
2023-08-14T15:04:46.686Z,97174.56
2023-08-14T15:07:13.378Z,97171.31
2023-08-14T15:09:39.876Z,97165.31
2023-08-14T15:12:06.657Z,97170.47
2023-08-14T15:14:33.241Z,97179.91
2023-08-14T15:17:00.206Z,97170.91
2023-08-14T15:19:27.507Z,97176.78
2023-08-14T15:21:54.013Z,97174.28
2023-08-14T15:24:20.546Z,97178.06
2023-08-14T15:26:47.874Z,97182.59
2023-08-14T15:29:15.823Z,97176.44
2023-08-14T15:31:42.447Z,97164.03
2023-08-14T15:34:09.032Z,97162.91
2023-08-14T15:36:35.739Z,97164.91
2023-08-14T15:39:02.318Z,97160.41
2023-08-14T15:41:28.869Z,97160.88
2023-08-14T15:43:55.500Z,97158.53
2023-08-14T15:46:22.055Z,97158.59
2023-08-14T15:48:48.619Z,97154.22
2023-08-14T15:51:15.293Z,97151.47
2023-08-14T15:53:41.936Z,97150.09
2023-08-14T15:56:08.551Z,97141.41
2023-08-14T15:58:35.102Z,97141.13
2023-08-14T16:01:01.718Z,97141.97
2023-08-14T16:03:28.372Z,97143.41
2023-08-14T16:05:56.434Z,97136.44
2023-08-14T16:08:23.102Z,97149.22
2023-08-14T16:10:49.633Z,97142.88
2023-08-14T16:13:16.175Z,97138.75
2023-08-14T16:15:42.653Z,97143.28
2023-08-14T16:18:09.134Z,97145.19
2023-08-14T16:20:35.698Z,97144.47
2023-08-14T16:23:02.305Z,97135.88
2023-08-14T16:25:28.813Z,97132.50
2023-08-14T16:27:55.342Z,97138.50
2023-08-14T16:30:21.897Z,97128.41
2023-08-14T16:32:48.467Z,97129.19
2023-08-14T16:35:14.982Z,97134.91
2023-08-14T16:37:41.513Z,97134.19
2023-08-14T16:40:08.969Z,97124.69
2023-08-14T16:42:35.448Z,97135.03
2023-08-14T16:45:02.063Z,97129.25
2023-08-14T16:47:29.332Z,97132.31
2023-08-14T16:49:55.986Z,97129.16
2023-08-14T16:52:22.587Z,97127.56
2023-08-14T16:54:49.078Z,97129.22
2023-08-14T16:57:15.534Z,97128.84
2023-08-14T16:59:42.071Z,97132.69
2023-08-14T17:02:08.804Z,97137.63
2023-08-14T17:04:35.337Z,97129.09
2023-08-14T17:07:03.792Z,97133.63
2023-08-14T17:09:30.615Z,97135.16
2023-08-14T17:11:57.260Z,97126.38
2023-08-14T17:14:26.200Z,97128.88
2023-08-14T17:16:52.805Z,97134.69
2023-08-14T17:19:24.268Z,97127.66
2023-08-14T17:21:51.072Z,97117.41
2023-08-14T17:24:17.797Z,97125.53
2023-08-14T17:26:44.320Z,97129.50
2023-08-14T17:29:11.206Z,97126.72
2023-08-14T17:31:37.765Z,97134.91
2023-08-14T17:34:04.484Z,97135.16
2023-08-14T17:36:31.227Z,97133.06
2023-08-14T17:38:58.982Z,97137.88
2023-08-14T17:41:25.616Z,97134.59
2023-08-14T17:43:52.124Z,97133.34
2023-08-14T17:46:18.705Z,97135.53
2023-08-14T17:48:45.299Z,97126.22
2023-08-14T17:51:11.891Z,97130.63
2023-08-14T17:53:38.443Z,97132.88
2023-08-14T17:56:04.967Z,97130.97
2023-08-14T17:58:31.689Z,97128.31
2023-08-14T18:00:58.223Z,97127.38
2023-08-14T18:03:25.138Z,97129.75
2023-08-14T18:05:52.733Z,97131.00
2023-08-14T18:08:19.789Z,97136.09
2023-08-14T18:10:46.757Z,97132.72
2023-08-14T18:13:13.396Z,97135.81
2023-08-14T18:15:40.124Z,97145.88
2023-08-14T18:18:07.204Z,97135.19
2023-08-14T18:20:33.989Z,97139.66
2023-08-14T18:23:01.054Z,97140.91
2023-08-14T18:25:27.864Z,97148.75
2023-08-14T18:27:54.436Z,97145.13
2023-08-14T18:30:21.032Z,97153.38
2023-08-14T18:32:47.681Z,97150.44
2023-08-14T18:35:14.246Z,97150.91
2023-08-14T18:37:40.864Z,97151.59
2023-08-14T18:40:08.293Z,97156.06
2023-08-14T18:42:35.386Z,97158.47
2023-08-14T18:45:02.099Z,97160.66
2023-08-14T18:47:28.764Z,97165.91
2023-08-14T18:49:55.326Z,97172.91
2023-08-14T18:52:22.179Z,97168.63
2023-08-14T18:54:48.735Z,97181.72
2023-08-14T18:57:15.273Z,97187.69
2023-08-14T18:59:49.210Z,97183.44
2023-08-14T19:02:15.820Z,97188.28
2023-08-14T19:04:43.894Z,97193.19
2023-08-14T19:07:11.806Z,97204.44
2023-08-14T19:09:38.798Z,97207.19
2023-08-14T19:12:06.942Z,97195.84
2023-08-14T19:14:33.922Z,97192.13
2023-08-14T19:17:00.673Z,97197.78
2023-08-14T19:19:27.300Z,97206.47
2023-08-14T19:21:53.841Z,97209.69
2023-08-14T19:24:21.246Z,97209.56
2023-08-14T19:26:47.892Z,97209.38
2023-08-14T19:29:14.456Z,97210.66
2023-08-14T19:31:41.114Z,97210.94
2023-08-14T19:34:07.718Z,97207.47
2023-08-14T19:36:34.536Z,97207.84
2023-08-14T19:39:01.320Z,97206.19
2023-08-14T19:41:28.029Z,97211.31
2023-08-14T19:43:54.798Z,97215.09
2023-08-14T19:46:21.494Z,97217.84
2023-08-14T19:48:48.208Z,97221.88
2023-08-14T19:51:14.788Z,97222.66
2023-08-14T19:53:41.352Z,97219.97
2023-08-14T19:56:08.348Z,97220.31
2023-08-14T19:58:34.877Z,97229.09
2023-08-14T20:01:01.834Z,97227.34
2023-08-14T20:03:28.636Z,97228.94
2023-08-14T20:05:55.343Z,97220.53
2023-08-14T20:08:22.344Z,97229.13
2023-08-14T20:10:48.871Z,97229.97
2023-08-14T20:13:15.675Z,97240.00
2023-08-14T20:15:47.236Z,97230.31
2023-08-14T20:18:15.471Z,97233.72
2023-08-14T20:20:43.991Z,97224.63
2023-08-14T20:23:11.584Z,97215.22
2023-08-14T20:25:38.774Z,97215.06
2023-08-14T20:28:06.814Z,97217.00
2023-08-14T20:30:40.216Z,97215.34
2023-08-14T20:33:07.248Z,97218.47
2023-08-14T20:35:44.170Z,97232.28
2023-08-14T20:38:11.458Z,97230.03
2023-08-14T20:40:39.550Z,97236.69
2023-08-14T20:43:13.004Z,97237.31
2023-08-14T20:45:40.816Z,97240.25
2023-08-14T20:48:08.148Z,97233.78
2023-08-14T20:50:34.809Z,97228.09
2023-08-14T20:53:01.420Z,97229.25
2023-08-14T20:55:30.823Z,97231.19
2023-08-14T20:57:57.335Z,97240.56
2023-08-14T21:00:23.939Z,97245.94
2023-08-14T21:02:51.405Z,97245.25
2023-08-14T21:05:18.294Z,97238.47
2023-08-14T21:07:44.816Z,97237.50
2023-08-14T21:10:11.434Z,97235.72
2023-08-14T21:12:38.026Z,97219.19
2023-08-14T21:15:05.024Z,97222.44
2023-08-14T21:17:31.531Z,97224.88
2023-08-14T21:19:58.102Z,97225.00
2023-08-14T21:22:24.711Z,97221.78
2023-08-14T21:24:51.301Z,97228.75
2023-08-14T21:27:19.544Z,97215.78
2023-08-14T21:29:46.499Z,97216.28
2023-08-14T21:32:13.285Z,97219.84
2023-08-14T21:34:41.772Z,97222.28
2023-08-14T21:37:08.864Z,97226.34
2023-08-14T21:39:35.664Z,97234.41
2023-08-14T21:42:02.285Z,97238.31
2023-08-14T21:44:28.931Z,97245.09
2023-08-14T21:46:55.530Z,97273.59
2023-08-14T21:49:22.073Z,97276.34
2023-08-14T21:51:48.671Z,97303.38
2023-08-14T21:54:18.760Z,97293.69
2023-08-14T21:56:46.609Z,97304.69
2023-08-14T21:59:13.260Z,97304.50
2023-08-14T22:01:39.846Z,97292.03
2023-08-14T22:04:06.586Z,97281.53
2023-08-14T22:06:33.277Z,97312.06
2023-08-14T22:08:59.830Z,97323.38
2023-08-14T22:11:27.562Z,97325.19
2023-08-14T22:13:56.400Z,97350.28
2023-08-14T22:16:24.137Z,97321.47
2023-08-14T22:18:50.773Z,97313.03
2023-08-14T22:21:17.372Z,97335.66
2023-08-14T22:23:44.048Z,97340.84
2023-08-14T22:26:10.586Z,97338.56
2023-08-14T22:28:37.134Z,97331.91
2023-08-14T22:31:03.678Z,97341.56
2023-08-14T22:33:30.174Z,97368.59
2023-08-14T22:35:57.177Z,97367.59
2023-08-14T22:38:24.365Z,97361.44
2023-08-14T22:40:51.926Z,97372.72
2023-08-14T22:43:18.568Z,97387.44
2023-08-14T22:48:17.097Z,97387.06
2023-08-14T22:50:44.092Z,97394.81
2023-08-14T22:53:10.625Z,97393.81
2023-08-14T22:55:37.240Z,97392.88
2023-08-14T22:58:04.366Z,97392.72
2023-08-14T23:00:31.053Z,97381.44
2023-08-14T23:02:57.645Z,97367.22
2023-08-14T23:05:25.395Z,97385.47
2023-08-14T23:07:52.993Z,97371.75
2023-08-14T23:10:20.093Z,97356.38
2023-08-14T23:12:46.764Z,97336.63
2023-08-14T23:15:13.725Z,97338.34
2023-08-14T23:17:40.842Z,97364.13
2023-08-14T23:20:08.141Z,97365.88
2023-08-14T23:22:34.882Z,97359.47
2023-08-14T23:25:01.430Z,97350.94
2023-08-14T23:27:27.983Z,97340.22
2023-08-14T23:29:54.765Z,97329.69
2023-08-14T23:32:21.618Z,97323.00
2023-08-14T23:34:48.314Z,97333.44
2023-08-14T23:37:14.979Z,97339.44
2023-08-14T23:39:41.514Z,97322.50
2023-08-14T23:42:08.147Z,97329.59
2023-08-14T23:44:34.731Z,97332.41
2023-08-14T23:47:03.375Z,97347.25
2023-08-14T23:49:30.162Z,97344.00
2023-08-14T23:51:57.051Z,97343.00
2023-08-14T23:54:23.624Z,97345.88
2023-08-14T23:56:50.126Z,97347.91
2023-08-14T23:59:16.634Z,97360.81
